sensor_id;sensor_type;location;lat;lon;timestamp;temperature;humidity
7240;DHT22;3661;53.288;10.458;2023-04-07T00:02:22;5.20;88.90
7240;DHT22;3661;53.288;10.458;2023-04-07T00:04:55;5.20;89.00
7240;DHT22;3661;53.288;10.458;2023-04-07T00:07:29;5.20;89.00
7240;DHT22;3661;53.288;10.458;2023-04-07T00:10:05;5.10;88.90
7240;DHT22;3661;53.288;10.458;2023-04-07T00:12:38;5.10;89.00
7240;DHT22;3661;53.288;10.458;2023-04-07T00:15:10;5.00;89.00
7240;DHT22;3661;53.288;10.458;2023-04-07T00:17:42;5.00;89.10
7240;DHT22;3661;53.288;10.458;2023-04-07T00:20:14;5.00;89.10
7240;DHT22;3661;53.288;10.458;2023-04-07T00:22:48;4.90;89.00
7240;DHT22;3661;53.288;10.458;2023-04-07T00:25:20;4.90;89.00
7240;DHT22;3661;53.288;10.458;2023-04-07T00:27:52;4.80;89.00
7240;DHT22;3661;53.288;10.458;2023-04-07T00:30:24;4.80;89.00
7240;DHT22;3661;53.288;10.458;2023-04-07T00:32:56;4.80;89.00
7240;DHT22;3661;53.288;10.458;2023-04-07T00:35:28;4.70;89.10
7240;DHT22;3661;53.288;10.458;2023-04-07T00:38:03;4.70;89.30
7240;DHT22;3661;53.288;10.458;2023-04-07T00:40:36;4.60;89.20
7240;DHT22;3661;53.288;10.458;2023-04-07T00:43:11;4.60;89.20
7240;DHT22;3661;53.288;10.458;2023-04-07T00:45:43;4.50;89.20
7240;DHT22;3661;53.288;10.458;2023-04-07T00:48:19;4.50;89.30
7240;DHT22;3661;53.288;10.458;2023-04-07T00:50:51;4.40;89.30
7240;DHT22;3661;53.288;10.458;2023-04-07T00:53:25;4.40;89.30
7240;DHT22;3661;53.288;10.458;2023-04-07T00:55:57;4.40;89.40
7240;DHT22;3661;53.288;10.458;2023-04-07T00:58:29;4.30;89.50
7240;DHT22;3661;53.288;10.458;2023-04-07T01:01:08;4.30;89.70
7240;DHT22;3661;53.288;10.458;2023-04-07T01:03:51;4.30;89.90
7240;DHT22;3661;53.288;10.458;2023-04-07T01:06:25;4.20;90.10
7240;DHT22;3661;53.288;10.458;2023-04-07T01:09:05;4.20;90.20
7240;DHT22;3661;53.288;10.458;2023-04-07T01:11:42;4.10;90.10
7240;DHT22;3661;53.288;10.458;2023-04-07T01:14:17;4.10;90.20
7240;DHT22;3661;53.288;10.458;2023-04-07T01:16:51;4.10;90.20
7240;DHT22;3661;53.288;10.458;2023-04-07T01:19:32;4.00;90.20
7240;DHT22;3661;53.288;10.458;2023-04-07T01:22:09;4.00;90.20
7240;DHT22;3661;53.288;10.458;2023-04-07T01:25:00;4.00;90.30
7240;DHT22;3661;53.288;10.458;2023-04-07T01:27:37;4.00;90.30
7240;DHT22;3661;53.288;10.458;2023-04-07T01:30:15;4.00;90.30
7240;DHT22;3661;53.288;10.458;2023-04-07T01:32:50;3.90;90.20
7240;DHT22;3661;53.288;10.458;2023-04-07T01:35:23;3.90;90.20
7240;DHT22;3661;53.288;10.458;2023-04-07T01:37:56;3.90;90.20
7240;DHT22;3661;53.288;10.458;2023-04-07T01:40:32;3.80;90.20
7240;DHT22;3661;53.288;10.458;2023-04-07T01:43:05;3.80;90.20
7240;DHT22;3661;53.288;10.458;2023-04-07T01:45:40;3.80;90.10
7240;DHT22;3661;53.288;10.458;2023-04-07T01:48:14;3.70;90.00
7240;DHT22;3661;53.288;10.458;2023-04-07T01:50:47;3.70;90.10
7240;DHT22;3661;53.288;10.458;2023-04-07T01:53:20;3.70;90.10
7240;DHT22;3661;53.288;10.458;2023-04-07T01:55:54;3.60;90.10
7240;DHT22;3661;53.288;10.458;2023-04-07T01:58:26;3.60;90.10
7240;DHT22;3661;53.288;10.458;2023-04-07T02:01:02;3.60;90.10
7240;DHT22;3661;53.288;10.458;2023-04-07T02:03:40;3.50;90.10
7240;DHT22;3661;53.288;10.458;2023-04-07T02:06:18;3.50;90.50
7240;DHT22;3661;53.288;10.458;2023-04-07T02:08:56;3.40;90.10
7240;DHT22;3661;53.288;10.458;2023-04-07T02:11:31;3.40;90.20
7240;DHT22;3661;53.288;10.458;2023-04-07T02:14:09;3.40;90.30
7240;DHT22;3661;53.288;10.458;2023-04-07T02:16:51;3.30;90.30
7240;DHT22;3661;53.288;10.458;2023-04-07T02:19:24;3.30;90.30
7240;DHT22;3661;53.288;10.458;2023-04-07T02:22:01;3.20;90.20
7240;DHT22;3661;53.288;10.458;2023-04-07T02:24:33;3.20;90.20
7240;DHT22;3661;53.288;10.458;2023-04-07T02:27:06;3.20;90.20
7240;DHT22;3661;53.288;10.458;2023-04-07T02:29:38;3.10;90.10
7240;DHT22;3661;53.288;10.458;2023-04-07T02:32:12;3.10;90.10
7240;DHT22;3661;53.288;10.458;2023-04-07T02:34:45;3.00;90.20
7240;DHT22;3661;53.288;10.458;2023-04-07T02:37:18;3.00;90.10
7240;DHT22;3661;53.288;10.458;2023-04-07T02:39:50;3.00;90.20
7240;DHT22;3661;53.288;10.458;2023-04-07T02:42:23;2.90;90.10
7240;DHT22;3661;53.288;10.458;2023-04-07T02:44:56;2.90;90.10
7240;DHT22;3661;53.288;10.458;2023-04-07T02:47:32;2.90;90.10
7240;DHT22;3661;53.288;10.458;2023-04-07T02:50:06;2.80;90.10
7240;DHT22;3661;53.288;10.458;2023-04-07T02:52:41;2.80;90.10
7240;DHT22;3661;53.288;10.458;2023-04-07T02:55:14;2.80;90.10
7240;DHT22;3661;53.288;10.458;2023-04-07T02:57:49;2.70;90.00
7240;DHT22;3661;53.288;10.458;2023-04-07T03:00:24;2.70;90.00
7240;DHT22;3661;53.288;10.458;2023-04-07T03:02:58;2.60;90.20
7240;DHT22;3661;53.288;10.458;2023-04-07T03:05:33;2.60;90.20
7240;DHT22;3661;53.288;10.458;2023-04-07T03:08:06;2.60;90.20
7240;DHT22;3661;53.288;10.458;2023-04-07T03:10:38;2.50;90.20
7240;DHT22;3661;53.288;10.458;2023-04-07T03:13:10;2.50;90.10
7240;DHT22;3661;53.288;10.458;2023-04-07T03:15:46;2.50;90.10
7240;DHT22;3661;53.288;10.458;2023-04-07T03:18:20;2.40;90.00
7240;DHT22;3661;53.288;10.458;2023-04-07T03:20:54;2.40;90.10
7240;DHT22;3661;53.288;10.458;2023-04-07T03:23:26;2.40;90.20
7240;DHT22;3661;53.288;10.458;2023-04-07T03:26:02;2.30;90.10
7240;DHT22;3661;53.288;10.458;2023-04-07T03:28:35;2.30;90.20
7240;DHT22;3661;53.288;10.458;2023-04-07T03:31:08;2.30;90.10
7240;DHT22;3661;53.288;10.458;2023-04-07T03:33:41;2.20;90.00
7240;DHT22;3661;53.288;10.458;2023-04-07T03:36:13;2.20;90.00
7240;DHT22;3661;53.288;10.458;2023-04-07T03:38:49;2.20;90.00
7240;DHT22;3661;53.288;10.458;2023-04-07T03:41:22;2.10;90.00
7240;DHT22;3661;53.288;10.458;2023-04-07T03:43:54;2.10;90.10
7240;DHT22;3661;53.288;10.458;2023-04-07T03:46:26;2.00;90.20
7240;DHT22;3661;53.288;10.458;2023-04-07T03:49:00;2.00;90.30
7240;DHT22;3661;53.288;10.458;2023-04-07T03:51:32;2.00;90.50
7240;DHT22;3661;53.288;10.458;2023-04-07T03:54:05;1.90;90.60
7240;DHT22;3661;53.288;10.458;2023-04-07T03:56:38;1.90;90.70
7240;DHT22;3661;53.288;10.458;2023-04-07T03:59:10;1.90;90.80
7240;DHT22;3661;53.288;10.458;2023-04-07T04:01:42;1.90;90.80
7240;DHT22;3661;53.288;10.458;2023-04-07T04:04:19;1.90;90.80
7240;DHT22;3661;53.288;10.458;2023-04-07T04:06:52;1.80;90.90
7240;DHT22;3661;53.288;10.458;2023-04-07T04:09:26;1.80;90.90
7240;DHT22;3661;53.288;10.458;2023-04-07T04:12:01;1.80;90.90
7240;DHT22;3661;53.288;10.458;2023-04-07T04:14:33;1.70;90.70
7240;DHT22;3661;53.288;10.458;2023-04-07T04:17:05;1.70;90.70
7240;DHT22;3661;53.288;10.458;2023-04-07T04:19:38;1.70;90.60
7240;DHT22;3661;53.288;10.458;2023-04-07T04:22:10;1.70;90.50
7240;DHT22;3661;53.288;10.458;2023-04-07T04:24:46;1.70;90.50
7240;DHT22;3661;53.288;10.458;2023-04-07T04:27:20;1.60;90.40
7240;DHT22;3661;53.288;10.458;2023-04-07T04:29:52;1.60;90.40
7240;DHT22;3661;53.288;10.458;2023-04-07T04:32:27;1.60;90.30
7240;DHT22;3661;53.288;10.458;2023-04-07T04:35:00;1.60;90.30
7240;DHT22;3661;53.288;10.458;2023-04-07T04:37:33;1.60;90.30
7240;DHT22;3661;53.288;10.458;2023-04-07T04:40:06;1.50;90.20
7240;DHT22;3661;53.288;10.458;2023-04-07T04:42:39;1.50;90.20
7240;DHT22;3661;53.288;10.458;2023-04-07T04:45:11;1.50;90.20
7240;DHT22;3661;53.288;10.458;2023-04-07T04:47:43;1.40;90.20
7240;DHT22;3661;53.288;10.458;2023-04-07T04:50:17;1.40;90.10
7240;DHT22;3661;53.288;10.458;2023-04-07T04:52:51;1.40;90.10
7240;DHT22;3661;53.288;10.458;2023-04-07T04:55:24;1.40;90.10
7240;DHT22;3661;53.288;10.458;2023-04-07T04:57:56;1.30;90.10
7240;DHT22;3661;53.288;10.458;2023-04-07T05:00:28;1.30;90.10
7240;DHT22;3661;53.288;10.458;2023-04-07T05:03:00;1.30;90.10
7240;DHT22;3661;53.288;10.458;2023-04-07T05:05:46;1.30;90.10
7240;DHT22;3661;53.288;10.458;2023-04-07T05:08:18;1.20;90.10
7240;DHT22;3661;53.288;10.458;2023-04-07T05:10:51;1.20;90.10
7240;DHT22;3661;53.288;10.458;2023-04-07T05:13:25;1.20;90.20
7240;DHT22;3661;53.288;10.458;2023-04-07T05:16:01;1.20;90.20
7240;DHT22;3661;53.288;10.458;2023-04-07T05:18:38;1.20;90.30
7240;DHT22;3661;53.288;10.458;2023-04-07T05:21:15;1.10;90.30
7240;DHT22;3661;53.288;10.458;2023-04-07T05:23:47;1.10;90.40
7240;DHT22;3661;53.288;10.458;2023-04-07T05:26:19;1.10;90.80
7240;DHT22;3661;53.288;10.458;2023-04-07T05:28:52;1.10;91.00
7240;DHT22;3661;53.288;10.458;2023-04-07T05:31:25;1.10;91.10
7240;DHT22;3661;53.288;10.458;2023-04-07T05:33:57;1.10;91.40
7240;DHT22;3661;53.288;10.458;2023-04-07T05:36:31;1.10;91.60
7240;DHT22;3661;53.288;10.458;2023-04-07T05:39:04;1.20;92.10
7240;DHT22;3661;53.288;10.458;2023-04-07T05:41:36;1.10;92.60
7240;DHT22;3661;53.288;10.458;2023-04-07T05:44:08;1.20;93.00
7240;DHT22;3661;53.288;10.458;2023-04-07T05:46:40;1.20;93.20
7240;DHT22;3661;53.288;10.458;2023-04-07T05:49:12;1.30;93.50
7240;DHT22;3661;53.288;10.458;2023-04-07T05:51:46;1.30;93.70
7240;DHT22;3661;53.288;10.458;2023-04-07T05:54:18;1.40;93.60
7240;DHT22;3661;53.288;10.458;2023-04-07T05:56:50;1.40;93.60
7240;DHT22;3661;53.288;10.458;2023-04-07T05:59:23;1.50;93.70
7240;DHT22;3661;53.288;10.458;2023-04-07T06:01:55;1.50;93.80
7240;DHT22;3661;53.288;10.458;2023-04-07T06:04:27;1.60;93.80
7240;DHT22;3661;53.288;10.458;2023-04-07T06:07:00;1.60;93.90
7240;DHT22;3661;53.288;10.458;2023-04-07T06:09:33;1.60;94.00
7240;DHT22;3661;53.288;10.458;2023-04-07T06:12:05;1.70;94.30
7240;DHT22;3661;53.288;10.458;2023-04-07T06:14:37;1.70;94.30
7240;DHT22;3661;53.288;10.458;2023-04-07T06:17:12;1.80;94.20
7240;DHT22;3661;53.288;10.458;2023-04-07T06:19:44;1.80;94.10
7240;DHT22;3661;53.288;10.458;2023-04-07T06:22:18;1.80;94.10
7240;DHT22;3661;53.288;10.458;2023-04-07T06:24:52;1.90;94.20
7240;DHT22;3661;53.288;10.458;2023-04-07T06:27:25;1.90;94.10
7240;DHT22;3661;53.288;10.458;2023-04-07T06:30:00;2.00;94.40
7240;DHT22;3661;53.288;10.458;2023-04-07T06:32:35;2.10;94.60
7240;DHT22;3661;53.288;10.458;2023-04-07T06:35:08;2.10;94.60
7240;DHT22;3661;53.288;10.458;2023-04-07T06:37:56;2.10;94.70
7240;DHT22;3661;53.288;10.458;2023-04-07T06:40:32;2.20;94.90
7240;DHT22;3661;53.288;10.458;2023-04-07T06:43:11;2.30;95.10
7240;DHT22;3661;53.288;10.458;2023-04-07T06:45:43;2.40;95.30
7240;DHT22;3661;53.288;10.458;2023-04-07T06:48:15;2.40;95.60
7240;DHT22;3661;53.288;10.458;2023-04-07T06:50:48;2.50;95.60
7240;DHT22;3661;53.288;10.458;2023-04-07T06:53:22;2.60;95.70
7240;DHT22;3661;53.288;10.458;2023-04-07T06:56:02;2.70;95.80
7240;DHT22;3661;53.288;10.458;2023-04-07T06:58:35;2.80;95.90
7240;DHT22;3661;53.288;10.458;2023-04-07T07:01:08;2.90;96.30
7240;DHT22;3661;53.288;10.458;2023-04-07T07:03:43;3.00;96.50
7240;DHT22;3661;53.288;10.458;2023-04-07T07:06:16;3.00;96.50
7240;DHT22;3661;53.288;10.458;2023-04-07T07:08:49;3.10;96.60
7240;DHT22;3661;53.288;10.458;2023-04-07T07:11:21;3.30;96.90
7240;DHT22;3661;53.288;10.458;2023-04-07T07:13:53;3.30;96.90
7240;DHT22;3661;53.288;10.458;2023-04-07T07:16:25;3.40;97.20
7240;DHT22;3661;53.288;10.458;2023-04-07T07:18:58;3.60;97.40
7240;DHT22;3661;53.288;10.458;2023-04-07T07:21:30;3.70;97.50
7240;DHT22;3661;53.288;10.458;2023-04-07T07:24:07;3.80;97.70
7240;DHT22;3661;53.288;10.458;2023-04-07T07:26:39;3.90;97.80
7240;DHT22;3661;53.288;10.458;2023-04-07T07:29:12;4.10;98.20
7240;DHT22;3661;53.288;10.458;2023-04-07T07:31:44;4.20;98.30
7240;DHT22;3661;53.288;10.458;2023-04-07T07:34:16;4.30;98.40
7240;DHT22;3661;53.288;10.458;2023-04-07T07:36:49;4.40;98.40
7240;DHT22;3661;53.288;10.458;2023-04-07T07:39:23;4.50;98.40
7240;DHT22;3661;53.288;10.458;2023-04-07T07:41:55;4.60;98.40
7240;DHT22;3661;53.288;10.458;2023-04-07T07:44:27;4.70;98.40
7240;DHT22;3661;53.288;10.458;2023-04-07T07:46:59;4.80;98.30
7240;DHT22;3661;53.288;10.458;2023-04-07T07:49:31;5.00;98.40
7240;DHT22;3661;53.288;10.458;2023-04-07T07:52:03;5.10;98.50
7240;DHT22;3661;53.288;10.458;2023-04-07T07:54:37;5.20;98.60
7240;DHT22;3661;53.288;10.458;2023-04-07T07:57:09;5.30;98.50
7240;DHT22;3661;53.288;10.458;2023-04-07T07:59:42;5.40;98.60
7240;DHT22;3661;53.288;10.458;2023-04-07T08:02:14;5.60;98.70
7240;DHT22;3661;53.288;10.458;2023-04-07T08:04:46;5.70;98.70
7240;DHT22;3661;53.288;10.458;2023-04-07T08:07:18;5.80;98.50
7240;DHT22;3661;53.288;10.458;2023-04-07T08:09:52;5.90;98.40
7240;DHT22;3661;53.288;10.458;2023-04-07T08:12:24;6.00;98.50
7240;DHT22;3661;53.288;10.458;2023-04-07T08:14:56;6.10;98.60
7240;DHT22;3661;53.288;10.458;2023-04-07T08:17:28;6.20;98.60
7240;DHT22;3661;53.288;10.458;2023-04-07T08:20:01;6.40;98.60
7240;DHT22;3661;53.288;10.458;2023-04-07T08:22:33;6.50;98.50
7240;DHT22;3661;53.288;10.458;2023-04-07T08:25:10;6.70;98.40
7240;DHT22;3661;53.288;10.458;2023-04-07T08:27:42;6.80;98.20
7240;DHT22;3661;53.288;10.458;2023-04-07T08:30:16;6.90;98.10
7240;DHT22;3661;53.288;10.458;2023-04-07T08:32:50;7.10;97.90
7240;DHT22;3661;53.288;10.458;2023-04-07T08:35:22;7.20;97.90
7240;DHT22;3661;53.288;10.458;2023-04-07T08:37:54;7.40;97.80
7240;DHT22;3661;53.288;10.458;2023-04-07T08:40:28;7.60;97.80
7240;DHT22;3661;53.288;10.458;2023-04-07T08:43:00;7.70;97.60
7240;DHT22;3661;53.288;10.458;2023-04-07T08:45:38;7.90;97.50
7240;DHT22;3661;53.288;10.458;2023-04-07T08:48:16;8.10;97.30
7240;DHT22;3661;53.288;10.458;2023-04-07T08:50:48;8.30;97.40
7240;DHT22;3661;53.288;10.458;2023-04-07T08:53:27;8.50;97.40
7240;DHT22;3661;53.288;10.458;2023-04-07T08:56:05;8.70;97.00
7240;DHT22;3661;53.288;10.458;2023-04-07T08:58:37;8.80;95.70
7240;DHT22;3661;53.288;10.458;2023-04-07T09:01:10;8.90;95.10
7240;DHT22;3661;53.288;10.458;2023-04-07T09:03:43;9.10;95.20
7240;DHT22;3661;53.288;10.458;2023-04-07T09:06:16;9.20;94.60
7240;DHT22;3661;53.288;10.458;2023-04-07T09:08:48;9.30;94.50
7240;DHT22;3661;53.288;10.458;2023-04-07T09:11:22;9.50;94.30
7240;DHT22;3661;53.288;10.458;2023-04-07T09:13:54;9.70;93.60
7240;DHT22;3661;53.288;10.458;2023-04-07T09:16:28;9.80;93.50
7240;DHT22;3661;53.288;10.458;2023-04-07T09:19:00;10.00;93.30
7240;DHT22;3661;53.288;10.458;2023-04-07T09:21:46;10.20;92.60
7240;DHT22;3661;53.288;10.458;2023-04-07T09:24:24;10.30;91.70
7240;DHT22;3661;53.288;10.458;2023-04-07T09:27:17;10.40;91.60
7240;DHT22;3661;53.288;10.458;2023-04-07T09:29:49;10.60;91.40
7240;DHT22;3661;53.288;10.458;2023-04-07T09:32:34;10.70;91.10
7240;DHT22;3661;53.288;10.458;2023-04-07T09:35:08;10.80;90.60
7240;DHT22;3661;53.288;10.458;2023-04-07T09:37:40;10.90;90.70
7240;DHT22;3661;53.288;10.458;2023-04-07T09:40:25;11.00;90.50
7240;DHT22;3661;53.288;10.458;2023-04-07T09:43:00;11.20;90.20
7240;DHT22;3661;53.288;10.458;2023-04-07T09:45:32;11.30;88.20
7240;DHT22;3661;53.288;10.458;2023-04-07T09:48:06;11.30;87.50
7240;DHT22;3661;53.288;10.458;2023-04-07T09:50:39;11.40;87.10
7240;DHT22;3661;53.288;10.458;2023-04-07T09:53:15;11.50;85.60
7240;DHT22;3661;53.288;10.458;2023-04-07T09:55:49;11.60;85.90
7240;DHT22;3661;53.288;10.458;2023-04-07T09:58:23;11.70;85.80
7240;DHT22;3661;53.288;10.458;2023-04-07T10:00:55;11.80;84.50
7240;DHT22;3661;53.288;10.458;2023-04-07T10:03:27;11.80;83.30
7240;DHT22;3661;53.288;10.458;2023-04-07T10:06:00;11.90;83.10
7240;DHT22;3661;53.288;10.458;2023-04-07T10:08:34;12.00;83.60
7240;DHT22;3661;53.288;10.458;2023-04-07T10:11:06;12.10;83.50
7240;DHT22;3661;53.288;10.458;2023-04-07T10:13:40;12.20;81.70
7240;DHT22;3661;53.288;10.458;2023-04-07T10:16:12;12.30;81.70
7240;DHT22;3661;53.288;10.458;2023-04-07T10:18:45;12.40;80.70
7240;DHT22;3661;53.288;10.458;2023-04-07T10:21:17;12.50;80.60
7240;DHT22;3661;53.288;10.458;2023-04-07T10:23:55;12.60;80.50
7240;DHT22;3661;53.288;10.458;2023-04-07T10:26:31;12.70;80.80
7240;DHT22;3661;53.288;10.458;2023-04-07T10:29:10;12.80;81.20
7240;DHT22;3661;53.288;10.458;2023-04-07T10:31:45;13.00;81.80
7240;DHT22;3661;53.288;10.458;2023-04-07T10:34:18;13.20;82.50
7240;DHT22;3661;53.288;10.458;2023-04-07T10:37:11;13.30;82.00
7240;DHT22;3661;53.288;10.458;2023-04-07T10:39:43;13.40;80.40
7240;DHT22;3661;53.288;10.458;2023-04-07T10:42:43;13.50;79.40
7240;DHT22;3661;53.288;10.458;2023-04-07T10:45:55;13.50;78.70
7240;DHT22;3661;53.288;10.458;2023-04-07T10:48:30;13.60;79.40
7240;DHT22;3661;53.288;10.458;2023-04-07T10:51:14;13.80;80.90
7240;DHT22;3661;53.288;10.458;2023-04-07T10:54:14;14.00;81.50
7240;DHT22;3661;53.288;10.458;2023-04-07T10:57:08;14.10;80.20
7240;DHT22;3661;53.288;10.458;2023-04-07T11:02:38;14.30;77.80
7240;DHT22;3661;53.288;10.458;2023-04-07T11:05:19;14.40;78.40
7240;DHT22;3661;53.288;10.458;2023-04-07T11:07:53;14.40;76.30
7240;DHT22;3661;53.288;10.458;2023-04-07T11:10:32;14.50;75.80
7240;DHT22;3661;53.288;10.458;2023-04-07T11:13:05;14.50;75.30
7240;DHT22;3661;53.288;10.458;2023-04-07T11:15:38;14.50;74.80
7240;DHT22;3661;53.288;10.458;2023-04-07T11:18:17;14.50;74.30
7240;DHT22;3661;53.288;10.458;2023-04-07T11:20:51;14.60;74.30
7240;DHT22;3661;53.288;10.458;2023-04-07T11:23:24;14.60;74.10
7240;DHT22;3661;53.288;10.458;2023-04-07T11:26:00;14.60;74.00
7240;DHT22;3661;53.288;10.458;2023-04-07T11:28:32;14.70;74.10
7240;DHT22;3661;53.288;10.458;2023-04-07T11:31:05;14.80;72.50
7240;DHT22;3661;53.288;10.458;2023-04-07T11:33:40;14.80;72.00
7240;DHT22;3661;53.288;10.458;2023-04-07T11:36:13;14.70;71.50
7240;DHT22;3661;53.288;10.458;2023-04-07T11:38:45;14.70;71.60
7240;DHT22;3661;53.288;10.458;2023-04-07T11:41:17;14.70;70.90
7240;DHT22;3661;53.288;10.458;2023-04-07T11:44:03;14.70;70.90
7240;DHT22;3661;53.288;10.458;2023-04-07T11:46:35;14.70;70.20
7240;DHT22;3661;53.288;10.458;2023-04-07T11:49:10;14.70;70.60
7240;DHT22;3661;53.288;10.458;2023-04-07T11:51:43;14.80;70.60
7240;DHT22;3661;53.288;10.458;2023-04-07T11:54:16;14.80;70.80
7240;DHT22;3661;53.288;10.458;2023-04-07T11:56:49;14.90;71.20
7240;DHT22;3661;53.288;10.458;2023-04-07T11:59:25;14.90;70.70
7240;DHT22;3661;53.288;10.458;2023-04-07T12:01:58;15.00;70.60
7240;DHT22;3661;53.288;10.458;2023-04-07T12:04:31;15.00;70.70
7240;DHT22;3661;53.288;10.458;2023-04-07T12:07:07;15.10;71.20
7240;DHT22;3661;53.288;10.458;2023-04-07T12:09:39;15.20;70.50
7240;DHT22;3661;53.288;10.458;2023-04-07T12:12:24;15.20;70.10
7240;DHT22;3661;53.288;10.458;2023-04-07T12:14:57;15.20;69.20
7240;DHT22;3661;53.288;10.458;2023-04-07T12:17:29;15.10;69.00
7240;DHT22;3661;53.288;10.458;2023-04-07T12:20:02;15.10;68.40
7240;DHT22;3661;53.288;10.458;2023-04-07T12:22:35;15.10;69.10
7240;DHT22;3661;53.288;10.458;2023-04-07T12:25:07;15.20;69.70
7240;DHT22;3661;53.288;10.458;2023-04-07T12:27:39;15.20;69.40
7240;DHT22;3661;53.288;10.458;2023-04-07T12:30:12;15.30;69.40
7240;DHT22;3661;53.288;10.458;2023-04-07T12:32:44;15.40;69.00
7240;DHT22;3661;53.288;10.458;2023-04-07T12:35:18;15.40;68.20
7240;DHT22;3661;53.288;10.458;2023-04-07T12:37:50;15.40;68.20
7240;DHT22;3661;53.288;10.458;2023-04-07T12:40:22;15.40;67.40
7240;DHT22;3661;53.288;10.458;2023-04-07T12:42:55;15.40;67.40
7240;DHT22;3661;53.288;10.458;2023-04-07T12:45:27;15.40;67.20
7240;DHT22;3661;53.288;10.458;2023-04-07T12:48:01;15.40;66.60
7240;DHT22;3661;53.288;10.458;2023-04-07T12:50:35;15.30;67.00
7240;DHT22;3661;53.288;10.458;2023-04-07T12:53:07;15.40;67.50
7240;DHT22;3661;53.288;10.458;2023-04-07T12:55:40;15.40;67.60
7240;DHT22;3661;53.288;10.458;2023-04-07T12:58:12;15.40;67.90
7240;DHT22;3661;53.288;10.458;2023-04-07T13:00:44;15.50;67.80
7240;DHT22;3661;53.288;10.458;2023-04-07T13:03:17;15.50;67.30
7240;DHT22;3661;53.288;10.458;2023-04-07T13:05:50;15.60;67.90
7240;DHT22;3661;53.288;10.458;2023-04-07T13:08:24;15.70;67.30
7240;DHT22;3661;53.288;10.458;2023-04-07T13:10:56;15.70;67.40
7240;DHT22;3661;53.288;10.458;2023-04-07T13:13:29;15.70;66.30
7240;DHT22;3661;53.288;10.458;2023-04-07T13:16:01;15.60;66.00
7240;DHT22;3661;53.288;10.458;2023-04-07T13:18:33;15.50;66.20
7240;DHT22;3661;53.288;10.458;2023-04-07T13:21:08;15.50;66.40
7240;DHT22;3661;53.288;10.458;2023-04-07T13:23:40;15.50;66.70
7240;DHT22;3661;53.288;10.458;2023-04-07T13:26:13;15.60;67.00
7240;DHT22;3661;53.288;10.458;2023-04-07T13:28:45;15.70;67.10
7240;DHT22;3661;53.288;10.458;2023-04-07T13:31:17;15.70;67.50
7240;DHT22;3661;53.288;10.458;2023-04-07T13:33:51;15.70;67.70
7240;DHT22;3661;53.288;10.458;2023-04-07T13:36:25;15.60;67.90
7240;DHT22;3661;53.288;10.458;2023-04-07T13:38:58;15.70;68.30
7240;DHT22;3661;53.288;10.458;2023-04-07T13:41:31;15.70;68.30
7240;DHT22;3661;53.288;10.458;2023-04-07T13:44:03;15.70;68.10
7240;DHT22;3661;53.288;10.458;2023-04-07T13:46:35;15.70;67.50
7240;DHT22;3661;53.288;10.458;2023-04-07T13:49:07;15.60;67.10
7240;DHT22;3661;53.288;10.458;2023-04-07T13:51:41;15.60;66.90
7240;DHT22;3661;53.288;10.458;2023-04-07T13:54:13;15.50;67.00
7240;DHT22;3661;53.288;10.458;2023-04-07T13:56:45;15.40;67.20
7240;DHT22;3661;53.288;10.458;2023-04-07T13:59:18;15.40;67.40
7240;DHT22;3661;53.288;10.458;2023-04-07T14:01:51;15.30;67.60
7240;DHT22;3661;53.288;10.458;2023-04-07T14:04:23;15.30;68.10
7240;DHT22;3661;53.288;10.458;2023-04-07T14:06:56;15.30;68.10
7240;DHT22;3661;53.288;10.458;2023-04-07T14:09:28;15.20;68.40
7240;DHT22;3661;53.288;10.458;2023-04-07T14:12:00;15.10;69.00
7240;DHT22;3661;53.288;10.458;2023-04-07T14:14:33;15.00;69.60
7240;DHT22;3661;53.288;10.458;2023-04-07T14:17:07;15.00;70.40
7240;DHT22;3661;53.288;10.458;2023-04-07T14:19:39;14.90;70.70
7240;DHT22;3661;53.288;10.458;2023-04-07T14:22:13;14.80;71.70
7240;DHT22;3661;53.288;10.458;2023-04-07T14:24:46;14.80;73.20
7240;DHT22;3661;53.288;10.458;2023-04-07T14:27:18;14.80;73.90
7240;DHT22;3661;53.288;10.458;2023-04-07T14:29:51;14.90;74.80
7240;DHT22;3661;53.288;10.458;2023-04-07T14:32:26;15.00;75.50
7240;DHT22;3661;53.288;10.458;2023-04-07T14:34:59;15.10;76.00
7240;DHT22;3661;53.288;10.458;2023-04-07T14:37:32;15.20;76.40
7240;DHT22;3661;53.288;10.458;2023-04-07T14:40:06;15.20;76.70
7240;DHT22;3661;53.288;10.458;2023-04-07T14:42:39;15.20;76.80
7240;DHT22;3661;53.288;10.458;2023-04-07T14:45:11;15.20;77.10
7240;DHT22;3661;53.288;10.458;2023-04-07T14:47:43;15.30;77.50
7240;DHT22;3661;53.288;10.458;2023-04-07T14:50:15;15.20;77.40
7240;DHT22;3661;53.288;10.458;2023-04-07T14:52:49;15.20;77.60
7240;DHT22;3661;53.288;10.458;2023-04-07T14:55:22;15.20;77.90
7240;DHT22;3661;53.288;10.458;2023-04-07T14:57:54;15.10;78.00
7240;DHT22;3661;53.288;10.458;2023-04-07T15:00:26;15.10;78.00
7240;DHT22;3661;53.288;10.458;2023-04-07T15:02:58;15.00;78.10
7240;DHT22;3661;53.288;10.458;2023-04-07T15:05:30;15.00;78.30
7240;DHT22;3661;53.288;10.458;2023-04-07T15:08:04;14.90;78.40
7240;DHT22;3661;53.288;10.458;2023-04-07T15:10:37;14.80;78.60
7240;DHT22;3661;53.288;10.458;2023-04-07T15:13:10;14.80;78.70
7240;DHT22;3661;53.288;10.458;2023-04-07T15:15:42;14.70;78.80
7240;DHT22;3661;53.288;10.458;2023-04-07T15:18:14;14.70;79.10
7240;DHT22;3661;53.288;10.458;2023-04-07T15:20:46;14.60;78.90
7240;DHT22;3661;53.288;10.458;2023-04-07T15:23:19;14.50;79.20
7240;DHT22;3661;53.288;10.458;2023-04-07T15:25:51;14.50;79.40
7240;DHT22;3661;53.288;10.458;2023-04-07T15:28:25;14.50;79.60
7240;DHT22;3661;53.288;10.458;2023-04-07T15:30:58;14.40;79.70
7240;DHT22;3661;53.288;10.458;2023-04-07T15:33:30;14.30;79.80
7240;DHT22;3661;53.288;10.458;2023-04-07T15:36:02;14.20;80.00
7240;DHT22;3661;53.288;10.458;2023-04-07T15:38:36;14.20;80.40
7240;DHT22;3661;53.288;10.458;2023-04-07T15:41:08;14.10;80.70
7240;DHT22;3661;53.288;10.458;2023-04-07T15:43:44;14.10;81.00
7240;DHT22;3661;53.288;10.458;2023-04-07T15:46:16;14.00;81.20
7240;DHT22;3661;53.288;10.458;2023-04-07T15:48:48;13.90;81.40
7240;DHT22;3661;53.288;10.458;2023-04-07T15:51:21;13.90;81.60
7240;DHT22;3661;53.288;10.458;2023-04-07T15:53:55;13.80;81.80
7240;DHT22;3661;53.288;10.458;2023-04-07T15:56:27;13.80;82.10
7240;DHT22;3661;53.288;10.458;2023-04-07T15:58:59;13.70;82.20
7240;DHT22;3661;53.288;10.458;2023-04-07T16:01:31;13.60;82.30
7240;DHT22;3661;53.288;10.458;2023-04-07T16:04:03;13.50;82.40
7240;DHT22;3661;53.288;10.458;2023-04-07T16:06:35;13.50;82.70
7240;DHT22;3661;53.288;10.458;2023-04-07T16:09:09;13.40;82.80
7240;DHT22;3661;53.288;10.458;2023-04-07T16:11:41;13.40;83.00
7240;DHT22;3661;53.288;10.458;2023-04-07T16:14:14;13.30;83.20
7240;DHT22;3661;53.288;10.458;2023-04-07T16:16:46;13.20;83.30
7240;DHT22;3661;53.288;10.458;2023-04-07T16:19:18;13.10;83.50
7240;DHT22;3661;53.288;10.458;2023-04-07T16:21:51;13.00;83.70
7240;DHT22;3661;53.288;10.458;2023-04-07T16:24:24;13.00;83.90
7240;DHT22;3661;53.288;10.458;2023-04-07T16:26:56;12.90;84.10
7240;DHT22;3661;53.288;10.458;2023-04-07T16:29:31;12.80;84.30
7240;DHT22;3661;53.288;10.458;2023-04-07T16:32:03;12.70;84.60
7240;DHT22;3661;53.288;10.458;2023-04-07T16:34:35;12.60;84.80
7240;DHT22;3661;53.288;10.458;2023-04-07T16:37:07;12.50;84.90
7240;DHT22;3661;53.288;10.458;2023-04-07T16:39:41;12.40;85.10
7240;DHT22;3661;53.288;10.458;2023-04-07T16:42:13;12.30;85.20